Time;durP1;ratioP1;P1;durP2;ratioP2;P2;SDS_P1;SDS_P2;PMS_P1;PMS_P2;Temp;Humidity;BMP_temperature;BMP_pressure;BME280_temperature;BME280_humidity;BME280_pressure;Samples;Min_cycle;Max_cycle;Signal;HPM_P1;HPM_P2
2023/05/11 00:00:24;;;;;;;4.72;1.52;;;;;;;9.50;68.11;100110.91;6270257;28;20386;-71
2023/05/11 00:03:25;;;;;;;1.50;1.20;;;;;;;9.51;69.88;100113.41;6277644;28;20060;-70
2023/05/11 00:06:25;;;;;;;2.08;1.30;;;;;;;9.44;68.30;100101.69;6273253;28;20049;-71
2023/05/11 00:09:27;;;;;;;3.00;1.52;;;;;;;9.39;69.84;100111.50;6267953;28;20057;-72
2023/05/11 00:12:28;;;;;;;1.37;1.20;;;;;;;9.35;69.82;100113.44;6291960;28;20044;-71
2023/05/11 00:15:28;;;;;;;1.90;1.23;;;;;;;9.29;70.27;100116.38;6264460;28;20088;-71
2023/05/11 00:18:29;;;;;;;3.65;1.95;;;;;;;9.23;69.90;100119.31;6273276;28;20976;-71
2023/05/11 00:21:31;;;;;;;2.65;1.15;;;;;;;9.16;71.50;100104.94;6283013;28;20105;-71
2023/05/11 00:24:31;;;;;;;1.40;1.13;;;;;;;9.12;71.76;100100.81;6270013;28;20049;-72
2023/05/11 00:27:32;;;;;;;4.30;1.65;;;;;;;9.14;72.41;100112.88;6273558;28;20586;-72
2023/05/11 00:30:33;;;;;;;1.85;1.20;;;;;;;9.08;73.84;100105.38;6273889;28;20667;-72
2023/05/11 00:33:34;;;;;;;1.73;1.17;;;;;;;9.02;74.43;100108.31;6277629;28;20052;-72
2023/05/11 00:36:38;;;;;;;1.20;1.10;;;;;;;9.04;73.42;100102.09;6270255;28;20060;-72
2023/05/11 00:39:40;;;;;;;1.88;1.42;;;;;;;8.98;75.90;100099.81;6285984;28;20048;-71
2023/05/11 00:42:41;;;;;;;2.75;1.55;;;;;;;8.96;75.39;100108.63;6287038;28;20057;-72
2023/05/11 00:45:43;;;;;;;2.15;1.63;;;;;;;8.96;76.17;100111.25;6272203;28;20448;-72
2023/05/11 00:48:43;;;;;;;;;;;;;;;8.98;77.65;100112.00;6265210;28;20053;-72
2023/05/11 00:51:45;;;;;;;3.78;1.45;;;;;;;8.94;77.29;100113.91;6260470;28;20358;-71
2023/05/11 00:54:46;;;;;;;2.10;1.33;;;;;;;8.89;76.62;100108.09;6265467;28;20080;-70
2023/05/11 00:57:47;;;;;;;2.20;1.63;;;;;;;8.91;76.70;100110.63;6271023;28;20091;-70
2023/05/11 01:00:48;;;;;;;2.83;1.55;;;;;;;8.88;77.13;100114.25;6284561;28;20651;-71
2023/05/11 01:03:49;;;;;;;1.25;1.05;;;;;;;8.82;77.17;100110.19;6293465;28;20406;-71
2023/05/11 01:06:53;;;;;;;2.17;1.50;;;;;;;8.77;76.80;100119.16;6270625;28;20087;-70
2023/05/11 01:10:09;;;;;;;6.78;1.73;;;;;;;8.81;76.69;100115.47;6269915;28;20075;-71
2023/05/11 01:13:19;;;;;;;2.30;1.60;;;;;;;8.75;77.00;100111.47;6271481;28;20060;-72
2023/05/11 01:16:23;;;;;;;1.65;1.42;;;;;;;8.77;77.32;100119.16;6269862;28;20499;-72
2023/05/11 01:19:30;;;;;;;1.48;1.13;;;;;;;8.71;78.27;100128.16;6274038;28;20048;-71
2023/05/11 01:22:49;;;;;;;4.22;1.30;;;;;;;8.69;78.51;100124.78;6265892;28;20053;-71
2023/05/11 01:26:07;;;;;;;1.95;1.00;;;;;;;8.55;79.48;100119.44;6276296;28;20055;-71
2023/05/11 01:29:35;;;;;;;2.10;1.15;;;;;;;8.52;79.36;100123.03;6246270;28;20049;-72
2023/05/11 01:32:40;;;;;;;1.10;1.00;;;;;;;8.50;80.48;100129.25;6246211;28;20515;-72
2023/05/11 01:35:47;;;;;;;2.75;1.58;;;;;;;8.37;81.31;100136.78;6263535;28;20087;-72
2023/05/11 01:38:52;;;;;;;1.83;1.25;;;;;;;8.31;80.99;100131.91;6294680;28;20044;-70
2023/05/11 01:41:55;;;;;;;1.40;1.30;;;;;;;8.39;81.21;100135.78;6289337;28;20131;-70
2023/05/11 01:44:58;;;;;;;3.20;1.48;;;;;;;8.39;82.11;100129.75;6278266;28;20480;-70
2023/05/11 01:48:05;;;;;;;1.63;1.35;;;;;;;8.38;82.07;100133.25;6270475;28;20140;-71
2023/05/11 01:51:07;;;;;;;3.05;1.33;;;;;;;8.31;82.63;100129.31;6269495;28;20151;-71
2023/05/11 01:54:10;;;;;;;2.03;1.20;;;;;;;8.40;82.04;100136.63;6260749;28;20128;-72
2023/05/11 01:57:12;;;;;;;3.03;1.40;;;;;;;8.41;80.66;100140.94;6270716;28;20052;-71
2023/05/11 02:00:15;;;;;;;2.17;1.38;;;;;;;8.40;81.30;100134.88;6278151;28;20541;-70
2023/05/11 02:03:20;;;;;;;1.55;1.45;;;;;;;8.38;81.89;100143.66;6281250;28;20118;-72
2023/05/11 02:06:24;;;;;;;1.42;1.30;;;;;;;8.44;82.67;100151.19;6270595;28;20049;-71
2023/05/11 02:09:25;;;;;;;1.73;1.40;;;;;;;8.52;82.45;100143.84;6270029;28;20589;-71
2023/05/11 02:12:27;;;;;;;1.60;1.35;;;;;;;8.51;81.33;100136.13;6281875;28;20135;-70
2023/05/11 02:15:32;;;;;;;2.90;1.77;;;;;;;8.52;81.74;100137.81;6288040;28;20146;-70
2023/05/11 02:18:34;;;;;;;1.65;1.35;;;;;;;8.48;82.59;100144.91;6294366;28;20115;-70
2023/05/11 02:21:37;;;;;;;;;;;;;;;8.44;82.98;100138.19;6280805;28;20049;-71
2023/05/11 02:24:39;;;;;;;1.98;1.40;;;;;;;8.44;81.68;100138.19;6274419;28;19921;-70
2023/05/11 02:27:39;;;;;;;3.15;1.77;;;;;;;8.43;83.56;100142.56;6300026;28;20105;-70
2023/05/11 02:30:45;;;;;;;4.10;1.90;;;;;;;8.42;82.31;100143.50;6275385;28;20053;-71
2023/05/11 02:33:48;;;;;;;2.78;1.52;;;;;;;8.43;82.90;100139.94;6281175;28;20101;-70
2023/05/11 02:36:53;;;;;;;3.08;1.42;;;;;;;8.42;83.94;100140.03;6283857;28;20049;-71
2023/05/11 02:40:02;;;;;;;2.67;1.58;;;;;;;8.41;84.52;100148.75;6274319;28;20467;-71
2023/05/11 02:43:09;;;;;;;1.95;1.40;;;;;;;8.39;85.69;100142.75;6274256;28;20057;-72
2023/05/11 02:46:16;;;;;;;2.35;1.33;;;;;;;8.34;84.59;100152.53;6280516;28;20048;-72
2023/05/11 02:49:19;;;;;;;1.55;1.17;;;;;;;8.32;85.94;100142.22;6273641;28;20065;-70
2023/05/11 02:52:22;;;;;;;2.25;1.45;;;;;;;8.35;87.23;100144.66;6273406;28;20057;-71
2023/05/11 02:55:24;;;;;;;2.83;1.52;;;;;;;8.35;87.27;100152.47;6272200;28;20049;-71
2023/05/11 02:58:25;;;;;;;2.85;1.58;;;;;;;8.33;85.62;100156.06;6273314;28;20578;-71
2023/05/11 03:01:29;;;;;;;5.88;1.42;;;;;;;8.33;86.76;100143.91;6279120;28;20048;-72
2023/05/11 03:04:30;;;;;;;2.65;1.60;;;;;;;8.37;84.93;100147.19;6274514;28;20063;-73
2023/05/11 03:07:34;;;;;;;2.65;1.75;;;;;;;8.38;84.75;100144.53;6287370;28;20131;-72
2023/05/11 03:10:35;;;;;;;1.75;1.13;;;;;;;8.36;82.30;100151.56;6271554;28;20132;-71
2023/05/11 03:13:36;;;;;;;2.45;1.10;;;;;;;8.46;80.77;100151.94;6270307;28;20049;-71
2023/05/11 03:16:38;;;;;;;3.55;1.52;;;;;;;8.49;81.38;100149.22;6286242;28;20048;-72
2023/05/11 03:19:42;;;;;;;2.83;1.30;;;;;;;8.50;80.40;100153.47;6273963;28;20044;-71
2023/05/11 03:22:45;;;;;;;1.48;1.17;;;;;;;8.52;80.97;100148.19;6283984;28;20049;-72
2023/05/11 03:25:46;;;;;;;1.50;1.30;;;;;;;8.58;81.49;100158.28;6298928;28;20110;-71
2023/05/11 03:28:49;;;;;;;2.22;1.55;;;;;;;8.55;81.33;100151.50;6297460;28;20060;-71
2023/05/11 03:31:50;;;;;;;0.90;0.90;;;;;;;8.56;80.95;100149.72;6296756;28;20052;-72
2023/05/11 03:34:51;;;;;;;2.53;1.75;;;;;;;8.61;80.66;100161.59;6298896;28;20051;-72
2023/05/11 03:37:57;;;;;;;9.15;1.58;;;;;;;8.71;81.71;100155.91;6298343;28;20117;-71
2023/05/11 03:41:00;;;;;;;2.13;1.27;;;;;;;8.73;79.94;100143.66;6299040;28;20053;-71
2023/05/11 03:44:04;;;;;;;3.83;1.42;;;;;;;8.71;80.59;100148.09;6298556;28;20063;-71
2023/05/11 03:47:08;;;;;;;1.65;1.20;;;;;;;8.70;80.46;100155.06;6280949;28;20127;-71
2023/05/11 03:50:09;;;;;;;3.35;1.45;;;;;;;8.72;80.26;100150.63;6273508;28;20044;-71
2023/05/11 03:53:11;;;;;;;1.42;1.05;;;;;;;8.71;80.45;100154.16;6294279;28;20379;-71
2023/05/11 03:56:12;;;;;;;2.53;1.73;;;;;;;8.73;80.79;100154.06;6297062;28;20502;-72
2023/05/11 03:59:15;;;;;;;2.80;1.48;;;;;;;8.72;80.88;100149.78;6296870;28;20056;-72
2023/05/11 04:02:16;;;;;;;1.95;1.20;;;;;;;8.67;81.25;100156.06;6298101;28;20040;-72
2023/05/11 04:05:18;;;;;;;1.25;1.05;;;;;;;8.65;81.72;100150.09;6297964;28;20467;-71
2023/05/11 04:08:18;;;;;;;1.27;0.93;;;;;;;8.54;82.24;100152.41;6297024;28;20103;-72
2023/05/11 04:11:20;;;;;;;3.03;1.55;;;;;;;8.61;81.78;100150.34;6296628;28;20048;-70
2023/05/11 04:14:24;;;;;;;2.28;1.20;;;;;;;8.69;82.94;100153.41;6297895;28;20135;-71
2023/05/11 04:17:24;;;;;;;2.97;1.65;;;;;;;8.70;82.91;100151.63;6297548;28;20410;-71
2023/05/11 04:20:25;;;;;;;1.58;1.23;;;;;;;8.71;82.82;100155.91;6296550;28;20135;-72
2023/05/11 04:23:26;;;;;;;2.38;1.35;;;;;;;8.73;82.94;100157.53;6295411;28;20048;-72
2023/05/11 04:26:27;;;;;;;7.18;1.50;;;;;;;8.80;81.94;100153.66;6295600;28;20068;-71
2023/05/11 04:29:28;;;;;;;1.50;1.33;;;;;;;8.81;83.35;100155.38;6297106;28;20492;-71
2023/05/11 04:32:29;;;;;;;2.20;1.45;;;;;;;8.81;82.12;100157.97;6297247;28;20052;-72
2023/05/11 04:35:32;;;;;;;3.28;1.15;;;;;;;8.81;81.94;100165.78;6297064;28;20059;-71
2023/05/11 04:38:32;;;;;;;4.57;1.23;;;;;;;8.82;81.73;100162.25;6297195;28;20056;-72
2023/05/11 04:41:33;;;;;;;3.15;1.33;;;;;;;8.82;82.03;100167.44;6297097;28;20511;-72
2023/05/11 04:44:34;;;;;;;1.50;1.30;;;;;;;8.89;82.94;100167.94;6284911;28;20476;-72
2023/05/11 04:47:35;;;;;;;2.88;1.30;;;;;;;8.93;82.53;100166.88;6265757;28;20504;-71
2023/05/11 04:50:35;;;;;;;1.60;1.25;;;;;;;8.92;82.05;100161.78;6251300;28;20442;-71
2023/05/11 04:53:36;;;;;;;1.70;1.25;;;;;;;8.94;82.48;100152.97;6270512;28;20044;-71
2023/05/11 04:56:39;;;;;;;2.33;1.33;;;;;;;9.00;81.81;100160.44;6283392;28;20051;-72
2023/05/11 04:59:40;;;;;;;3.60;1.58;;;;;;;9.06;82.11;100167.09;6272478;28;20135;-72
2023/05/11 05:02:40;;;;;;;1.40;1.23;;;;;;;9.19;82.49;100162.91;6290399;28;20454;-72
2023/05/11 05:05:41;;;;;;;2.08;1.40;;;;;;;9.35;81.73;100167.28;6275388;28;20049;-70
2023/05/11 05:08:42;;;;;;;3.13;1.63;;;;;;;9.54;81.32;100173.19;6273286;28;20083;-72
2023/05/11 05:11:43;;;;;;;1.10;0.95;;;;;;;9.92;80.42;100177.19;6271338;28;20095;-72
2023/05/11 05:14:43;;;;;;;2.80;1.52;;;;;;;10.25;80.34;100170.06;6265845;28;20503;-70
2023/05/11 05:17:44;;;;;;;2.13;1.50;;;;;;;10.46;78.01;100170.59;6268379;28;20053;-72
2023/05/11 05:20:47;;;;;;;2.28;1.73;;;;;;;10.68;77.28;100171.94;6285935;28;20462;-72
2023/05/11 05:23:47;;;;;;;4.32;1.55;;;;;;;10.95;76.39;100164.19;6286505;28;20396;-72
2023/05/11 05:26:48;;;;;;;1.70;1.35;;;;;;;11.18;75.07;100175.88;6289204;28;20045;-72
2023/05/11 05:29:49;;;;;;;2.05;1.45;;;;;;;11.37;73.58;100170.34;6286183;28;20056;-72
2023/05/11 05:32:50;;;;;;;3.95;1.80;;;;;;;11.57;74.83;100173.47;6281667;28;20136;-71
2023/05/11 05:35:50;;;;;;;5.20;1.52;;;;;;;11.72;73.05;100171.69;6286623;28;20056;-70
2023/05/11 05:38:51;;;;;;;1.70;1.27;;;;;;;11.95;72.71;100167.59;6294285;28;20048;-70
2023/05/11 05:41:52;;;;;;;5.05;1.73;;;;;;;12.13;72.51;100169.03;6272292;28;20408;-70
2023/05/11 05:44:53;;;;;;;3.47;1.40;;;;;;;12.35;71.34;100168.41;6295580;28;20049;-70
2023/05/11 05:47:54;;;;;;;3.63;1.73;;;;;;;12.54;69.53;100162.81;6295955;28;20052;-70
2023/05/11 05:50:55;;;;;;;3.00;1.42;;;;;;;12.73;67.03;100164.19;6295480;28;20055;-72
2023/05/11 05:54:00;;;;;;;1.83;1.42;;;;;;;12.95;66.17;100160.91;6287532;28;20049;-72
2023/05/11 05:57:01;;;;;;;4.47;1.52;;;;;;;13.08;62.57;100154.72;6303118;28;20060;-71
2023/05/11 06:00:02;;;;;;;1.48;1.30;;;;;;;13.27;60.51;100158.66;6268449;28;20045;-71
2023/05/11 06:03:05;;;;;;;2.70;1.38;;;;;;;13.55;60.59;100169.84;6269454;28;20053;-72
2023/05/11 06:06:06;;;;;;;4.95;1.10;;;;;;;13.72;58.70;100160.78;6270545;28;20049;-72
2023/05/11 06:09:07;;;;;;;1.65;1.25;;;;;;;13.98;57.70;100156.22;6270501;28;20549;-72
2023/05/11 06:12:09;;;;;;;1.65;1.02;;;;;;;13.92;58.07;100160.16;6270314;28;20061;-71
2023/05/11 06:15:10;;;;;;;1.53;1.33;;;;;;;14.23;54.67;100163.16;6266994;28;20499;-70
2023/05/11 06:18:11;;;;;;;1.73;0.95;;;;;;;14.47;55.50;100174.41;6270540;28;20059;-71
2023/05/11 06:21:11;;;;;;;2.33;1.20;;;;;;;14.72;55.41;100162.06;6288183;28;20048;-70
2023/05/11 06:24:14;;;;;;;1.20;0.93;;;;;;;14.75;52.53;100155.78;6271169;28;20049;-70
2023/05/11 06:27:15;;;;;;;3.72;1.20;;;;;;;15.03;53.02;100163.19;6268276;28;20057;-70
2023/05/11 06:30:16;;;;;;;4.15;1.30;;;;;;;15.31;53.27;100167.09;6268133;28;20450;-70
2023/05/11 06:33:16;;;;;;;2.25;1.30;;;;;;;15.45;53.93;100162.56;6269097;28;20045;-72
2023/05/11 06:36:17;;;;;;;1.25;0.75;;;;;;;15.60;52.63;100171.00;6281789;28;20049;-70
2023/05/11 06:39:18;;;;;;;1.42;0.98;;;;;;;15.68;52.00;100166.78;6272070;28;20346;-71
2023/05/11 06:42:19;;;;;;;1.38;0.93;;;;;;;15.89;52.23;100169.50;6288635;28;20045;-72
2023/05/11 06:45:20;;;;;;;3.17;1.20;;;;;;;16.01;51.11;100172.09;6293330;28;20052;-71
2023/05/11 06:48:22;;;;;;;1.30;1.10;;;;;;;16.09;51.99;100183.66;6293059;28;20457;-71
2023/05/11 06:51:23;;;;;;;0.90;0.82;;;;;;;16.13;50.88;100170.28;6286099;28;20518;-70
2023/05/11 06:54:23;;;;;;;2.03;1.38;;;;;;;16.20;49.25;100174.88;6267092;28;20092;-71
2023/05/11 06:57:24;;;;;;;2.97;1.25;;;;;;;16.41;49.15;100169.66;6274698;28;20053;-72
2023/05/11 07:00:25;;;;;;;1.38;1.10;;;;;;;16.54;49.74;100172.09;6274936;28;20049;-72
2023/05/11 07:03:26;;;;;;;2.13;1.30;;;;;;;16.75;50.39;100172.06;6294491;28;20053;-71
2023/05/11 07:06:26;;;;;;;1.73;1.20;;;;;;;16.70;48.06;100166.38;6279634;28;20057;-70
2023/05/11 07:09:30;;;;;;;1.02;0.93;;;;;;;16.99;46.99;100168.34;6285936;28;20048;-71
2023/05/11 07:12:31;;;;;;;1.60;1.08;;;;;;;17.17;49.52;100173.81;6296464;28;20060;-73
2023/05/11 07:15:34;;;;;;;0.93;0.80;;;;;;;17.18;45.78;100160.50;6280038;28;20064;-72
2023/05/11 07:18:37;;;;;;;2.50;1.10;;;;;;;17.42;47.70;100165.44;6272048;28;20064;-73
2023/05/11 07:21:38;;;;;;;1.42;1.00;;;;;;;17.33;45.62;100158.31;6273125;28;20051;-73
2023/05/11 07:24:39;;;;;;;2.53;1.20;;;;;;;17.49;47.02;100155.19;6272627;28;20052;-73
2023/05/11 07:27:39;;;;;;;2.67;1.23;;;;;;;17.78;45.62;100159.66;6289589;28;20084;-72
2023/05/11 07:30:40;;;;;;;2.53;1.35;;;;;;;17.91;47.12;100158.47;6296907;28;20097;-72
2023/05/11 07:33:41;;;;;;;2.47;1.10;;;;;;;18.26;46.29;100158.84;6297258;28;20147;-72
2023/05/11 07:36:42;;;;;;;1.40;1.10;;;;;;;18.27;46.19;100165.81;6285037;28;20053;-72
2023/05/11 07:39:42;;;;;;;2.50;1.15;;;;;;;18.51;43.63;100163.56;6272035;28;20048;-72
2023/05/11 07:42:43;;;;;;;1.27;0.73;;;;;;;18.68;46.05;100159.34;6272409;28;20052;-72
2023/05/11 07:45:46;;;;;;;1.25;1.15;;;;;;;18.77;46.67;100170.03;6271712;28;20045;-72
2023/05/11 07:48:47;;;;;;;1.50;1.40;;;;;;;18.83;43.39;100161.56;6271796;28;20072;-72
2023/05/11 07:51:48;;;;;;;1.65;1.13;;;;;;;18.97;43.88;100161.09;6272317;28;20260;-72
2023/05/11 07:54:49;;;;;;;1.77;1.25;;;;;;;18.88;41.66;100164.56;6271414;28;20060;-72
2023/05/11 07:57:53;;;;;;;0.95;0.82;;;;;;;19.15;42.19;100160.28;6271124;28;20053;-72
2023/05/11 08:00:54;;;;;;;2.55;1.10;;;;;;;19.33;41.70;100161.19;6272800;28;20059;-72
2023/05/11 08:03:54;;;;;;;1.95;1.13;;;;;;;19.33;39.78;100158.53;6272014;28;20053;-71
2023/05/11 08:06:55;;;;;;;2.20;1.02;;;;;;;19.77;39.91;100165.81;6272000;28;20049;-73
2023/05/11 08:09:56;;;;;;;1.40;1.05;;;;;;;20.04;41.08;100159.63;6271896;28;20045;-72
2023/05/11 08:12:57;;;;;;;2.37;1.30;;;;;;;19.91;35.84;100157.34;6286915;28;20578;-72
2023/05/11 08:15:58;;;;;;;0.77;0.70;;;;;;;20.09;35.53;100157.34;6288456;28;20102;-73
2023/05/11 08:18:58;;;;;;;2.00;1.23;;;;;;;20.29;36.62;100164.13;6273063;28;20053;-73
2023/05/11 08:22:00;;;;;;;1.23;0.93;;;;;;;20.37;34.79;100171.31;6277892;28;20064;-71
2023/05/11 08:25:02;;;;;;;1.30;0.80;;;;;;;20.22;36.36;100157.81;6271007;28;20096;-73
2023/05/11 08:28:03;;;;;;;2.40;1.17;;;;;;;20.39;35.00;100163.22;6266724;28;20499;-72
2023/05/11 08:31:05;;;;;;;3.03;1.13;;;;;;;20.63;35.69;100168.72;6270877;28;20056;-72
2023/05/11 08:34:07;;;;;;;2.67;1.10;;;;;;;20.50;35.13;100157.66;6270827;28;20056;-72
2023/05/11 08:37:08;;;;;;;1.23;0.90;;;;;;;20.45;34.61;100160.78;6260271;28;20091;-72
2023/05/11 08:40:10;;;;;;;1.23;0.73;;;;;;;20.80;36.87;100152.91;6254189;28;20045;-72
2023/05/11 08:43:15;;;;;;;2.10;1.02;;;;;;;20.98;36.00;100155.47;6283720;28;20526;-72
2023/05/11 08:46:22;;;;;;;1.13;1.00;;;;;;;21.28;37.89;100154.13;6256137;28;20484;-71
2023/05/11 08:49:23;;;;;;;0.60;0.60;;;;;;;21.35;34.86;100144.50;6284444;28;20568;-72
2023/05/11 08:52:26;;;;;;;1.60;0.90;;;;;;;21.67;33.31;100140.31;6282625;28;20080;-72
2023/05/11 08:55:27;;;;;;;1.45;0.90;;;;;;;21.48;34.11;100136.97;6295071;28;20085;-71
2023/05/11 08:58:29;;;;;;;1.63;1.00;;;;;;;21.56;34.24;100138.81;6278257;28;20099;-72
2023/05/11 09:01:30;;;;;;;;;;;;;;;21.81;35.98;100142.31;6296044;28;20047;-73
2023/05/11 09:04:33;;;;;;;1.20;0.88;;;;;;;21.54;32.20;100140.78;6249937;28;19920;-72
2023/05/11 09:07:37;;;;;;;2.10;0.82;;;;;;;21.77;31.18;100135.69;6278839;28;20079;-72
2023/05/11 09:10:38;;;;;;;0.93;0.80;;;;;;;21.74;32.52;100128.03;6269604;28;20071;-73
2023/05/11 09:13:39;;;;;;;2.83;0.90;;;;;;;21.70;33.14;100126.69;6271089;28;20057;-73
2023/05/11 09:16:40;;;;;;;0.70;0.53;;;;;;;22.16;30.51;100124.41;6274045;28;20056;-71
2023/05/11 09:20:05;;;;;;;0.77;0.67;;;;;;;22.27;31.15;100121.41;6285966;28;20116;-72
2023/05/11 09:23:06;;;;;;;0.60;0.60;;;;;;;22.14;32.03;100119.25;6293562;28;20098;-71
2023/05/11 09:26:14;;;;;;;1.77;0.73;;;;;;;22.41;32.24;100125.22;6292116;28;20453;-72
2023/05/11 09:29:19;;;;;;;1.02;0.70;;;;;;;22.61;29.43;100114.22;6281069;28;20390;-72
2023/05/11 09:32:20;;;;;;;1.02;0.70;;;;;;;22.58;28.69;100103.94;6280328;28;20136;-72
2023/05/11 09:35:32;;;;;;;0.67;0.60;;;;;;;22.56;31.99;100114.72;6281589;28;20459;-73
2023/05/11 09:38:33;;;;;;;1.92;0.93;;;;;;;22.61;30.28;100104.44;6269952;28;20262;-72
2023/05/11 09:41:34;;;;;;;1.83;0.83;;;;;;;22.41;29.36;100114.59;6268711;28;20049;-71
2023/05/11 09:44:34;;;;;;;1.20;0.80;;;;;;;22.88;30.54;100105.81;6271017;28;20090;-72
2023/05/11 09:47:41;;;;;;;1.07;0.80;;;;;;;22.76;29.39;100106.38;6271750;28;20053;-73
2023/05/11 09:50:42;;;;;;;4.35;0.75;;;;;;;22.91;30.22;100100.16;6269579;28;20044;-72
2023/05/11 09:53:44;;;;;;;1.33;0.70;;;;;;;23.17;30.03;100100.91;6268679;28;20084;-71
2023/05/11 09:56:48;;;;;;;3.05;0.68;;;;;;;23.35;28.37;100093.50;6288135;28;20052;-70
2023/05/11 09:59:52;;;;;;;1.40;0.52;;;;;;;22.93;26.57;100092.00;6265336;28;20420;-70
2023/05/11 10:03:02;;;;;;;2.90;0.52;;;;;;;22.71;27.41;100078.47;6276930;28;20049;-70
2023/05/11 10:06:03;;;;;;;0.90;0.80;;;;;;;23.07;28.47;100066.53;6292680;28;20045;-70
2023/05/11 10:09:08;;;;;;;1.57;0.63;;;;;;;22.70;26.41;100074.13;6268148;28;20055;-71
2023/05/11 10:12:09;;;;;;;1.52;0.75;;;;;;;22.69;27.90;100069.81;6269248;28;20471;-70
2023/05/11 10:15:13;;;;;;;1.10;0.73;;;;;;;22.61;26.17;100059.22;6269254;28;20049;-71
2023/05/11 10:18:14;;;;;;;1.40;0.50;;;;;;;22.84;27.52;100071.78;6269063;28;20064;-72
2023/05/11 10:21:15;;;;;;;0.70;0.60;;;;;;;;;;6272076;28;20083;-73
2023/05/11 10:24:16;;;;;;;1.20;0.70;;;;;;;22.93;24.86;100052.09;6276377;28;20099;-72
2023/05/11 10:27:17;;;;;;;0.43;0.43;;;;;;;23.30;25.59;100066.56;6244409;28;20049;-72
2023/05/11 10:30:19;;;;;;;0.88;0.68;;;;;;;23.61;25.90;100057.69;6276526;28;20049;-72
2023/05/11 10:33:20;;;;;;;0.68;0.50;;;;;;;23.66;25.78;100055.31;6279372;28;20084;-72
2023/05/11 10:36:22;;;;;;;1.17;0.65;;;;;;;23.71;26.90;100064.44;6286043;28;20068;-71
2023/05/11 10:39:23;;;;;;;2.25;0.70;;;;;;;23.18;26.60;100066.13;6293907;28;20049;-71
2023/05/11 10:42:40;;;;;;;0.57;0.52;;;;;;;23.46;29.17;100053.13;6293866;28;20177;-72
2023/05/11 10:45:55;;;;;;;0.82;0.50;;;;;;;23.36;26.91;100044.56;6280322;28;20049;-72
2023/05/11 10:49:25;;;;;;;5.43;0.75;;;;;;;23.36;27.56;100051.72;6272621;28;20476;-71
2023/05/11 10:52:46;;;;;;;1.23;0.80;;;;;;;23.37;28.73;100046.22;6272620;28;20098;-72
2023/05/11 10:55:55;;;;;;;0.50;0.50;;;;;;;23.44;27.66;100044.50;6272161;28;20482;-72
2023/05/11 10:59:08;;;;;;;3.28;0.60;;;;;;;23.21;25.99;100033.03;6269419;28;20107;-72
2023/05/11 11:02:09;;;;;;;1.23;0.80;;;;;;;23.62;29.00;100043.38;6248697;28;20098;-72
2023/05/11 11:05:14;;;;;;;3.65;0.70;;;;;;;23.44;28.18;100030.38;6280845;28;20049;-71
2023/05/11 11:08:15;;;;;;;1.15;0.60;;;;;;;23.64;27.27;100036.88;6248765;28;20099;-72
2023/05/11 11:11:33;;;;;;;1.10;0.53;;;;;;;23.54;26.70;100034.44;6249055;28;20100;-73
2023/05/11 11:14:53;;;;;;;2.30;1.00;;;;;;;24.04;27.80;100045.53;6248483;28;20411;-72
2023/05/11 11:18:21;;;;;;;5.97;0.70;;;;;;;23.37;26.07;100035.56;6247399;28;20103;-72
2023/05/11 11:21:41;;;;;;;1.40;0.70;;;;;;;24.46;28.57;100028.09;6247352;28;20103;-72
2023/05/11 11:24:44;;;;;;;0.50;0.50;;;;;;;24.46;26.90;100027.25;6273304;28;20065;-72
2023/05/11 11:27:51;;;;;;;1.33;0.98;;;;;;;24.72;27.41;100029.47;6273032;28;20392;-72
2023/05/11 11:31:47;;;;;;;1.50;0.60;;;;;;;24.07;26.45;100018.53;6282420;28;20143;-72
2023/05/11 11:34:49;;;;;;;0.90;0.80;;;;;;;24.04;27.76;100034.03;6258591;28;20080;-72
2023/05/11 11:38:01;;;;;;;0.73;0.70;;;;;;;24.69;28.14;100016.50;6272964;28;20064;-71
2023/05/11 11:41:06;;;;;;;4.65;0.75;;;;;;;25.15;29.02;100034.88;6272544;28;20053;-71
2023/05/11 11:44:19;;;;;;;0.82;0.70;;;;;;;24.94;27.46;100027.69;6272491;28;20056;-72
2023/05/11 11:47:21;;;;;;;1.23;0.80;;;;;;;23.80;28.10;100024.44;6270363;28;20538;-72
2023/05/11 11:50:27;;;;;;;2.70;1.10;;;;;;;23.82;29.74;100017.09;6272333;28;20044;-72
2023/05/11 11:53:54;;;;;;;2.65;1.05;;;;;;;23.92;29.83;100026.47;6272493;28;20060;-72
2023/05/11 11:56:55;;;;;;;1.17;0.75;;;;;;;23.97;29.77;100019.78;6262016;28;20053;-73
2023/05/11 11:59:56;;;;;;;1.90;0.60;;;;;;;23.30;30.21;100015.97;6271074;28;20483;-71
2023/05/11 12:03:01;;;;;;;1.67;0.73;;;;;;;22.93;30.32;100012.19;6272141;28;20111;-72
2023/05/11 12:06:04;;;;;;;1.58;0.90;;;;;;;23.37;28.70;100011.63;6272236;28;20136;-73
2023/05/11 12:09:06;;;;;;;1.80;0.85;;;;;;;24.27;29.14;100005.47;6277073;28;20100;-72
2023/05/11 12:12:08;;;;;;;1.13;0.90;;;;;;;24.77;27.71;100008.41;6271981;28;20084;-73
2023/05/11 12:15:27;;;;;;;1.60;0.98;;;;;;;24.86;27.54;100004.59;6292296;28;20139;-73
2023/05/11 12:18:28;;;;;;;1.02;0.80;;;;;;;24.85;29.21;100005.63;6292190;28;20127;-73
2023/05/11 12:21:33;;;;;;;1.23;0.63;;;;;;;24.90;27.99;100005.88;6297549;28;20055;-72
2023/05/11 12:24:34;;;;;;;0.75;0.73;;;;;;;25.14;28.77;100001.19;6289593;28;20084;-71
2023/05/11 12:27:35;;;;;;;1.33;0.80;;;;;;;24.33;28.07;100004.72;6279070;28;20122;-71
2023/05/11 12:30:36;;;;;;;0.90;0.90;;;;;;;23.24;29.75;99990.88;6272077;28;20055;-71
2023/05/11 12:33:50;;;;;;;1.50;1.00;;;;;;;23.50;29.57;100003.84;6294920;28;20053;-72
2023/05/11 12:36:52;;;;;;;2.90;0.90;;;;;;;23.07;28.59;99992.03;6294896;28;20465;-72
2023/05/11 12:39:54;;;;;;;0.73;0.73;;;;;;;24.01;30.94;99987.28;6287528;28;20042;-71
2023/05/11 12:42:57;;;;;;;3.60;0.82;;;;;;;22.92;31.03;99992.75;6271386;28;20059;-71
2023/05/11 12:46:01;;;;;;;1.52;1.05;;;;;;;22.17;30.34;99977.25;6271260;28;20672;-72
2023/05/11 12:49:05;;;;;;;1.23;0.75;;;;;;;22.01;30.65;99983.44;6269964;28;20083;-72
2023/05/11 12:52:09;;;;;;;0.82;0.63;;;;;;;22.53;31.12;99982.16;6269696;28;20419;-72
2023/05/11 12:55:10;;;;;;;1.45;0.77;;;;;;;22.44;30.89;99970.69;6273244;28;20307;-71
2023/05/11 12:58:13;;;;;;;4.43;0.85;;;;;;;21.98;32.02;99967.00;6281433;28;20383;-72
2023/05/11 13:01:14;;;;;;;2.15;0.95;;;;;;;22.00;33.16;99970.34;6275875;28;20475;-71
2023/05/11 13:04:15;;;;;;;1.67;1.10;;;;;;;21.64;32.76;99976.88;6287394;28;20059;-73
2023/05/11 13:07:24;;;;;;;2.15;1.10;;;;;;;22.44;31.71;99976.00;6276806;28;20052;-72
2023/05/11 13:10:26;;;;;;;2.03;1.20;;;;;;;22.98;30.30;99975.25;6265621;28;20041;-72
2023/05/11 13:13:29;;;;;;;2.05;0.90;;;;;;;23.45;31.53;99960.97;6269983;28;20052;-71
2023/05/11 13:16:34;;;;;;;1.08;0.90;;;;;;;22.52;30.80;99956.53;6268957;28;20126;-71
2023/05/11 13:19:38;;;;;;;1.10;0.80;;;;;;;21.58;31.37;99950.13;6268682;28;20084;-71
2023/05/11 13:22:41;;;;;;;5.35;0.90;;;;;;;21.86;32.01;99953.25;6270356;28;20045;-71
2023/05/11 13:25:44;;;;;;;1.10;0.75;;;;;;;22.50;32.97;99955.88;6269894;28;20190;-72
2023/05/11 13:28:45;;;;;;;0.80;0.70;;;;;;;22.59;30.90;99951.34;6269750;28;20419;-72
2023/05/11 13:31:48;;;;;;;1.17;0.70;;;;;;;23.17;29.74;99954.53;6269919;28;20140;-72
2023/05/11 13:34:49;;;;;;;0.60;0.60;;;;;;;23.07;30.14;99946.78;6269875;28;20049;-72
2023/05/11 13:37:50;;;;;;;1.23;0.97;;;;;;;23.09;30.36;99940.28;6267750;28;20049;-72
2023/05/11 13:40:50;;;;;;;1.87;0.67;;;;;;;22.53;30.60;99942.28;6269739;28;20490;-72
2023/05/11 13:43:51;;;;;;;0.60;0.60;;;;;;;22.40;30.70;99941.97;6268947;28;20071;-72
2023/05/11 13:46:52;;;;;;;2.07;1.07;;;;;;;21.93;30.88;99940.97;6269447;28;20047;-72
2023/05/11 13:49:53;;;;;;;1.00;0.80;;;;;;;22.77;30.44;99938.63;6268425;28;20044;-72
2023/05/11 13:52:54;;;;;;;1.75;0.93;;;;;;;23.27;29.65;99937.31;6268110;28;20129;-73
2023/05/11 13:55:55;;;;;;;2.33;0.97;;;;;;;23.97;30.19;99927.34;6268218;28;20053;-72
2023/05/11 13:58:58;;;;;;;1.57;0.93;;;;;;;23.43;30.74;99914.22;6268887;28;20049;-71
2023/05/11 14:02:01;;;;;;;1.65;0.95;;;;;;;23.07;30.31;99928.16;6268295;28;20051;-72
2023/05/11 14:05:02;;;;;;;1.13;0.88;;;;;;;22.08;30.53;99925.16;6267347;28;20053;-72
2023/05/11 14:08:03;;;;;;;1.03;0.77;;;;;;;21.98;31.06;99916.53;6268370;28;20044;-72
2023/05/11 14:11:04;;;;;;;1.30;0.95;;;;;;;22.16;33.82;99922.47;6267386;28;20040;-72
2023/05/11 14:14:05;;;;;;;6.00;0.93;;;;;;;22.15;32.42;99918.13;6267683;28;20053;-73
2023/05/11 14:17:05;;;;;;;2.23;1.13;;;;;;;21.80;31.15;99912.25;6267721;28;20502;-72
2023/05/11 14:20:07;;;;;;;1.60;0.77;;;;;;;22.37;30.69;99913.94;6268533;28;20136;-72